METAR LSZS 051750Z AUTO 15006KT CAVOK 05/M02 Q1023=
Diese Daten sind ohne Gewähr und dürfen nicht für die Flugvorbereitung verwendet werden.
Information contained in this website shall not be used for flight operation purposes.